Flight Track Log - Related Links

Times and Time Zones

All times are in EDT time to prevent confusion due to time zone crossing. See the LBQ652 flight status page for this flight to view local times or setup timezone preferences in your user account.

Time Position Orientation Groundspeed Altitude Reporting Facility
EDT Latitude Longitude Course Direction KTS MPH feet Rate Location/Type
Tue 04:01:53 AM 41.9108 -88.3314 250° West 234 269 3,600  Level Chicago Center
Tue 04:02:54 AM 41.8708 -88.4122 236° Southwest 252 290 5,400 1,835 Climbing Chicago Center
Tue 04:03:54 AM 41.8500 -88.5106 254° West 282 325 7,300 1,700 Climbing Chicago Center
Tue 04:04:54 AM 41.8472 -88.6153 268° West 285 328 8,800 1,500 Climbing Chicago Center
Tue 04:05:54 AM 41.8439 -88.7244 268° West 293 337 10,300 1,438 Climbing Chicago Center
Tue 04:06:00 AM 41.9667 -88.7765 270° West  Level FlightAware Approximate
Tue 04:06:55 AM 41.8408 -88.8369 268° West 302 348 11,700  Level Chicago Center
Tue 04:07:55 AM 41.8364 -88.9497 267° West 305 351 13,000 1,350 Climbing Chicago Center
Tue 04:08:55 AM 41.8325 -89.0658 267° West 313 360 14,400 1,388 Climbing Chicago Center
Tue 04:09:56 AM 41.8289 -89.1800 268° West 311 358 15,800 1,289 Climbing Chicago Center
Tue 04:10:56 AM 41.8133 -89.2967 260° West 321 369 17,000 1,100 Climbing Chicago Center
Tue 04:11:56 AM 41.7778 -89.4083 247° West 328 377 18,000 1,240 Climbing Chicago Center
Tue 04:12:57 AM 41.7422 -89.5206 247° West 329 379 19,500 1,438 Climbing Chicago Center
Tue 04:13:57 AM 41.7058 -89.6400 248° West 328 377 20,900 1,300 Climbing Chicago Center
Tue 04:14:57 AM 41.6697 -89.7542 247° West 334 384 22,100 1,350 Climbing Chicago Center
Tue 04:15:57 AM 41.6347 -89.8661 247° West 329 379 23,600 1,388 Climbing Chicago Center
Tue 04:16:58 AM 41.5883 -89.9719 240° Southwest 335 386 24,900 1,339 Climbing Chicago Center
Tue 04:17:58 AM 41.5364 -90.0722 235° Southwest 331 381 26,300 1,300 Climbing Chicago Center
Tue 04:18:58 AM 41.4850 -90.1697 235° Southwest 325 374 27,500 1,339 Climbing Chicago Center
Tue 04:19:59 AM 41.4328 -90.2714 236° Southwest 330 380 29,000 1,388 Climbing Chicago Center
Tue 04:20:59 AM 41.3819 -90.3675 235° Southwest 321 369 30,300 1,300 Climbing Chicago Center
Tue 04:21:59 AM 41.3308 -90.4653 235° Southwest 323 372 31,600 1,240 Climbing Chicago Center
Tue 04:23:00 AM 41.2808 -90.5603 235° Southwest 318 366 32,800 1,091 Climbing Chicago Center
Tue 04:24:00 AM 41.2289 -90.6594 235° Southwest 328 377 33,800 600 Climbing Chicago Center
Tue 04:25:00 AM 41.1672 -90.7758 235° Southwest 325 374 34,000 99 Climbing Chicago Center
Tue 04:26:01 AM 41.1106 -90.8825 235° Southwest 348 400 34,000  Level Chicago Center
Tue 04:27:01 AM 41.0522 -90.9903 234° Southwest 359 413 34,000  Level Chicago Center
Tue 04:28:02 AM 40.9936 -91.1014 235° Southwest 367 422 34,000  Level Chicago Center
Tue 04:29:01 AM 40.9333 -91.2122 234° Southwest 371 427 34,000  Level Chicago Center
Tue 04:30:02 AM 40.8711 -91.3281 235° Southwest 374 430 34,000  Level Chicago Center
Tue 04:31:02 AM 40.8117 -91.4369 234° Southwest 371 427 34,000  Level Chicago Center
Tue 04:32:02 AM 40.7522 -91.5469 235° Southwest 372 428 34,000  Level Chicago Center
Tue 04:33:03 AM 40.6931 -91.6569 235° Southwest 371 427 34,000  Level Chicago Center
Tue 04:34:03 AM 40.6325 -91.7664 234° Southwest 371 427 34,000  Level Chicago Center
Tue 04:34:46 AM 40.5947 -91.8328 233° Southwest 374 430 34,000  Level Kansas City Center
Tue 04:35:46 AM 40.5331 -91.9422 233° Southwest 375 432 34,000  Level Kansas City Center
Tue 04:36:47 AM 40.4744 -92.0519 235° Southwest 373 429 34,000  Level Kansas City Center
Tue 04:37:47 AM 40.4019 -92.1833 234° Southwest 372 428 34,000 -446 Level Kansas City Center
Tue 04:38:48 AM 40.3397 -92.2953 234° Southwest 376 433 33,100 -787 Descending Kansas City Center
Tue 04:39:49 AM 40.2806 -92.3986 233° Southwest 386 444 32,400 -744 Descending Kansas City Center
Tue 04:40:49 AM 40.2075 -92.5303 234° Southwest 395 455 31,600 -793 Descending Kansas City Center
Tue 04:41:50 AM 40.1453 -92.6417 234° Southwest 396 456 30,800 -744 Descending Kansas City Center
Tue 04:42:50 AM 40.0817 -92.7542 234° Southwest 399 459 30,100 -793 Descending Kansas City Center
Tue 04:43:51 AM 40.0078 -92.8828 233° Southwest 402 463 29,200 -843 Descending Kansas City Center
Tue 04:44:51 AM 39.9406 -93.0014 234° Southwest 406 467 28,400 -793 Descending Kansas City Center
Tue 04:45:52 AM 39.8731 -93.1189 233° Southwest 407 468 27,600 -738 Descending Kansas City Center
Tue 04:46:53 AM 39.8050 -93.2356 233° Southwest 408 470 26,900 -793 Descending Kansas City Center
Tue 04:47:53 AM 39.7394 -93.3508 234° Southwest 402 463 26,000 -942 Descending Kansas City Center
Tue 04:48:54 AM 39.6747 -93.4628 233° Southwest 396 456 25,000 -992 Descending Kansas City Center
Tue 04:49:54 AM 39.6133 -93.5731 234° Southwest 384 442 24,000 -992 Descending Kansas City Center
Tue 04:50:55 AM 39.5508 -93.6783 232° Southwest 373 429 23,000 -496 Descending Kansas City Center
Tue 04:51:55 AM 39.4883 -93.7864 233° Southwest 358 412 23,000  Level Kansas City Center
Tue 04:52:56 AM 39.4303 -93.8856 233° Southwest 360 414 23,000  Level Kansas City Center
Tue 04:53:57 AM 39.3622 -94.0008 233° Southwest 360 414 23,000 -198 Level Kansas City Center
Tue 04:54:57 AM 39.3031 -94.1019 233° Southwest 368 423 22,600 -1,438 Descending Kansas City Center
Tue 04:55:58 AM 39.2442 -94.2014 233° Southwest 365 420 20,100 -2,777 Descending Kansas City Center
Tue 04:56:58 AM 39.1772 -94.3142 233° Southwest 353 406 17,000 -2,826 Descending Kansas City Center
Tue 04:57:59 AM 39.1244 -94.4017 232° Southwest 327 376 14,400 -2,557 Descending Kansas City Center
Tue 04:59:00 AM 39.0717 -94.4908 233° Southwest 326 375 11,800 -2,430 Descending Kansas City Center
Tue 05:00:00 AM 39.0208 -94.5758 232° Southwest 317 365 9,500 -2,430 Descending Kansas City Center
Tue 05:01:01 AM 38.9675 -94.6619 231° Southwest 277 319 6,900 -1,537 Descending Kansas City Center
Tue 05:02:01 AM 38.9222 -94.7283 229° Southwest 270 311 6,400 -500 Descending Kansas City Center

Login

Don't have an account? Register now (free) for customized features, flight alerts, and more!